Time;durP1;ratioP1;P1;durP2;ratioP2;P2;SDS_P1;SDS_P2;PMS_P1;PMS_P2;Temp;Humidity;BMP_temperature;BMP_pressure;BME280_temperature;BME280_humidity;BME280_pressure;Samples;Min_cycle;Max_cycle;Signal;HPM_P1;HPM_P2
2023/01/26 00:01:39;;;;;;;77.00;31.10;;;;;;;0.65;100.00;101416.21;107415;1265;73490;-89
2023/01/26 00:04:07;;;;;;;63.80;31.30;;;;;;;1.20;100.00;101414.87;107325;1266;69684;-91
2023/01/26 00:06:35;;;;;;;61.10;28.00;;;;;;;1.47;99.84;101413.02;107303;1266;72399;-89
2023/01/26 00:09:04;;;;;;;66.70;30.40;;;;;;;1.48;98.52;101408.38;107333;1263;200178;-90
2023/01/26 00:11:32;;;;;;;61.50;27.50;;;;;;;1.67;96.75;101403.58;107493;1264;58760;-89
2023/01/26 00:14:00;;;;;;;59.30;27.30;;;;;;;1.90;95.57;101397.95;107511;1263;71151;-88
2023/01/26 00:16:29;;;;;;;57.90;26.90;;;;;;;1.89;84.45;101393.60;107445;1263;69384;-89
2023/01/26 00:18:57;;;;;;;61.10;28.60;;;;;;;1.87;82.40;101391.48;108311;1251;71390;-89
2023/01/26 00:21:25;;;;;;;60.50;28.40;;;;;;;1.79;82.07;101388.22;108334;1251;61352;-89
2023/01/26 00:23:53;;;;;;;58.20;27.70;;;;;;;2.16;80.56;101381.45;108302;1251;61456;-90
2023/01/26 00:26:23;;;;;;;53.20;25.70;;;;;;;2.29;79.73;101381.48;108377;1252;74342;-89
2023/01/26 00:28:51;;;;;;;63.20;28.00;;;;;;;2.37;78.48;101381.78;108457;1251;68341;-90
2023/01/26 00:31:22;;;;;;;65.80;28.20;;;;;;;2.38;77.48;101381.97;108494;1251;73801;-91
2023/01/26 00:33:51;;;;;;;55.10;27.60;;;;;;;2.70;76.53;101378.84;108265;1251;63223;-90
2023/01/26 00:36:19;;;;;;;56.10;27.20;;;;;;;2.75;76.01;101380.66;108319;1251;60331;-88
2023/01/26 00:38:48;;;;;;;55.90;25.90;;;;;;;2.68;75.25;101378.30;108347;1253;74285;-89
2023/01/26 00:44:04;;;;;;;55.90;27.20;;;;;;;2.88;74.13;101373.56;108339;1253;73597;-90
2023/01/26 00:46:32;;;;;;;58.50;27.70;;;;;;;3.05;73.65;101373.81;108349;1253;60937;-90
2023/01/26 00:49:03;;;;;;;56.40;27.50;;;;;;;3.27;72.73;101369.39;108359;1251;60265;-90
2023/01/26 00:51:33;;;;;;;63.30;27.00;;;;;;;3.40;71.90;101367.48;108335;1251;72579;-89
2023/01/26 00:54:04;;;;;;;57.00;25.90;;;;;;;3.24;71.56;101364.84;108273;1251;70656;-90
2023/01/26 00:56:33;;;;;;;56.20;26.00;;;;;;;3.38;70.79;101364.33;108279;1251;72826;-90
2023/01/26 00:59:01;;;;;;;57.70;26.20;;;;;;;3.50;69.85;101366.04;108396;1251;61687;-89
2023/01/26 01:01:29;;;;;;;58.20;27.80;;;;;;;3.35;69.66;101362.03;108367;1253;59749;-89
2023/01/26 01:04:00;;;;;;;50.80;25.40;;;;;;;3.59;69.01;101359.02;108299;1252;71772;-88
2023/01/26 01:06:29;;;;;;;59.00;29.00;;;;;;;3.72;68.75;101355.86;108664;1256;70334;-89
2023/01/26 01:08:57;;;;;;;55.70;27.80;;;;;;;3.82;68.59;101354.23;108340;1253;72540;-89
2023/01/26 01:11:26;;;;;;;72.70;28.30;;;;;;;3.77;68.66;101355.21;108967;1252;63127;-89
2023/01/26 01:13:54;;;;;;;66.10;31.30;;;;;;;3.85;68.08;101353.05;109108;1251;59398;-89
2023/01/26 01:16:23;;;;;;;57.50;28.70;;;;;;;4.02;67.85;101346.78;109307;1253;72718;-90
2023/01/26 01:18:53;;;;;;;54.80;28.20;;;;;;;4.34;67.21;101339.23;109524;1253;69099;-91
2023/01/26 01:21:24;;;;;;;57.00;27.30;;;;;;;3.96;68.11;101338.20;109312;1252;72600;-91
2023/01/26 01:23:53;;;;;;;59.20;27.80;;;;;;;4.10;68.29;101336.06;108371;1253;61242;-90
2023/01/26 01:26:21;;;;;;;46.50;25.10;;;;;;;4.30;67.72;101330.84;108323;1256;61158;-91
2023/01/26 01:28:54;;;;;;;59.60;26.40;;;;;;;4.20;66.85;101333.56;108235;1252;72816;-91
2023/01/26 01:31:22;;;;;;;62.80;29.10;;;;;;;4.41;66.18;101334.59;108249;1253;70144;-89
2023/01/26 01:33:55;;;;;;;61.30;28.10;;;;;;;4.37;66.03;101335.95;108242;1253;72336;-90
2023/01/26 01:36:23;;;;;;;52.30;25.90;;;;;;;4.46;65.85;101327.15;108300;1252;62925;-90
2023/01/26 01:38:52;;;;;;;55.00;24.40;;;;;;;4.67;65.28;101327.46;108309;1252;61278;-90
2023/01/26 01:41:21;;;;;;;59.60;26.20;;;;;;;4.52;65.95;101326.67;108229;1251;73166;-90
2023/01/26 01:43:50;;;;;;;61.90;27.90;;;;;;;4.83;64.73;101320.25;108335;1252;71421;-90
2023/01/26 01:46:36;;;;;;;55.50;27.20;;;;;;;5.12;63.80;101315.00;108318;1251;72746;-89
2023/01/26 01:49:15;;;;;;;64.50;28.90;;;;;;;5.26;63.04;101308.45;108330;1252;63016;-90
2023/01/26 01:52:08;;;;;;;61.60;28.60;;;;;;;5.32;62.95;101306.55;108314;1251;62026;-89
2023/01/26 01:54:49;;;;;;;61.20;27.70;;;;;;;5.42;61.90;101303.45;108212;1256;74216;-91
2023/01/26 01:57:26;;;;;;;57.50;26.30;;;;;;;5.36;61.09;101297.67;108310;1253;70131;-89
2023/01/26 02:00:04;;;;;;;63.60;28.10;;;;;;;5.29;61.37;101294.52;108252;1253;71717;-90
2023/01/26 02:02:40;;;;;;;63.70;30.10;;;;;;;5.36;61.13;101293.86;108195;1253;61977;-89
2023/01/26 02:05:14;;;;;;;61.20;29.30;;;;;;;5.34;61.19;101290.89;108208;1258;60009;-90
2023/01/26 02:07:44;;;;;;;56.90;26.50;;;;;;;5.38;61.18;101286.00;108168;1258;72296;-89
2023/01/26 02:10:17;;;;;;;61.80;28.60;;;;;;;5.40;61.05;101285.86;108263;1253;70656;-91
2023/01/26 02:12:49;;;;;;;56.80;27.50;;;;;;;5.33;61.36;101283.38;108166;1253;73457;-88
2023/01/26 02:15:17;;;;;;;67.40;28.90;;;;;;;5.27;61.32;101283.55;108187;1257;61883;-91
2023/01/26 02:17:45;;;;;;;69.70;31.20;;;;;;;4.92;62.35;101282.88;108027;1252;61478;-89
2023/01/26 02:20:40;;;;;;;60.80;28.90;;;;;;;5.03;61.92;101278.06;108224;1253;72740;-89
2023/01/26 02:23:30;;;;;;;67.50;30.30;;;;;;;5.47;61.03;101266.35;108250;1253;68366;-90
2023/01/26 02:26:06;;;;;;;72.50;32.90;;;;;;;5.68;60.72;101267.08;108255;1253;72428;-90
2023/01/26 02:28:34;;;;;;;75.50;30.60;;;;;;;5.43;61.14;101267.23;108265;1253;59836;-88
2023/01/26 02:31:03;;;;;;;68.90;31.10;;;;;;;5.44;60.53;101265.48;108777;1253;60343;-91
2023/01/26 02:33:32;;;;;;;61.00;28.20;;;;;;;5.56;60.14;101261.33;109180;1252;72992;-90
2023/01/26 02:36:03;;;;;;;74.60;33.30;;;;;;;5.60;59.81;101257.14;109260;1253;70447;-90
2023/01/26 02:38:41;;;;;;;62.40;28.00;;;;;;;5.61;59.32;101257.50;109485;1253;72642;-90
2023/01/26 02:42:37;;;;;;;73.30;32.80;;;;;;;5.66;59.87;101259.42;109215;1253;59178;-89
2023/01/26 02:44:03;;;;;;;76.30;34.70;;;;;;;5.77;60.06;101252.30;109455;1253;57826;-86
2023/01/26 02:46:32;;;;;;;66.90;30.50;;;;;;;5.63;60.69;101250.36;109521;1253;72735;-86
2023/01/26 02:51:47;;;;;;;74.10;32.00;;;;;;;5.96;60.09;101248.82;109516;1253;71605;-88
2023/01/26 02:57:02;;;;;;;64.70;28.80;;;;;;;6.15;59.93;101243.07;108418;1253;59543;-91
2023/01/26 02:59:31;;;;;;;91.50;39.00;;;;;;;6.21;59.50;101240.80;108206;1253;72933;-90
2023/01/26 03:01:59;;;;;;;77.50;36.00;;;;;;;6.53;57.83;101234.11;108329;1251;70575;-88
2023/01/26 03:04:29;;;;;;;69.10;29.90;;;;;;;6.59;57.77;101232.35;108556;1253;73870;-90
2023/01/26 03:06:57;;;;;;;72.60;31.80;;;;;;;6.46;57.85;101226.27;108701;1251;62358;-88
2023/01/26 03:09:26;;;;;;;63.40;27.40;;;;;;;6.41;57.62;101220.88;108239;1254;60030;-90
2023/01/26 03:11:56;;;;;;;75.20;30.40;;;;;;;6.34;57.88;101222.29;108383;1252;74010;-89
2023/01/26 03:14:27;;;;;;;74.10;32.80;;;;;;;6.59;57.06;101221.53;108245;1254;71601;-90
2023/01/26 03:16:55;;;;;;;72.80;32.40;;;;;;;6.68;56.48;101222.54;108347;1251;73138;-90
2023/01/26 03:27:46;;;;;;;59.90;26.80;;;;;;;6.87;56.31;101215.49;108287;1253;70920;-89
2023/01/26 03:30:17;;;;;;;73.60;31.40;;;;;;;7.57;55.15;101206.50;108212;1254;71520;-89
2023/01/26 03:32:48;;;;;;;57.00;26.40;;;;;;;7.73;54.40;101204.29;108229;1254;62390;-91
2023/01/26 03:35:21;;;;;;;81.70;35.10;;;;;;;7.25;55.39;101204.27;108344;1252;60595;-90
2023/01/26 03:37:53;;;;;;;87.00;36.60;;;;;;;7.29;55.24;101199.55;108203;1254;73290;-90
2023/01/26 03:57:32;;;;;;;76.30;33.40;;;;;;;7.18;54.19;101194.38;108322;1252;73958;-90
2023/01/26 04:00:00;;;;;;;74.50;32.10;;;;;;;7.35;53.58;101193.22;108292;1251;60972;-91
2023/01/26 04:08:21;;;;;;;56.90;26.20;;;;;;;7.35;53.24;101198.45;108199;1255;71935;-90
2023/01/26 04:10:55;;;;;;;69.80;29.30;;;;;;;7.21;53.40;101199.95;108205;1256;73845;-89
2023/01/26 12:00:59;;;;;;;48.20;22.70;;;;;;;3.43;84.82;101025.84;105803;1281;613379;-64
2023/01/26 12:03:47;;;;;;;48.30;24.00;;;;;;;5.12;70.81;101017.14;107286;1269;117724;-65
2023/01/26 12:06:19;;;;;;;52.60;22.40;;;;;;;5.43;69.06;101020.08;107384;1264;61123;-65
2023/01/26 12:08:51;;;;;;;45.80;21.90;;;;;;;5.59;68.15;101020.21;108254;1256;73396;-64
2023/01/26 12:11:41;;;;;;;44.50;21.80;;;;;;;5.59;66.64;101020.56;108216;1254;69465;-62
2023/01/26 12:27:15;;;;;;;49.40;24.30;;;;;;;5.72;63.93;101014.11;105609;1281;612348;-64
2023/01/26 12:30:01;;;;;;;52.80;23.40;;;;;;;6.11;61.52;101016.58;107978;1254;158517;-62
2023/01/26 12:32:28;;;;;;;50.50;22.60;;;;;;;5.87;62.20;101017.36;108193;1254;61414;-64
2023/01/26 12:34:56;;;;;;;59.30;25.50;;;;;;;6.00;61.71;101017.14;108232;1254;71957;-63
2023/01/26 12:37:34;;;;;;;54.20;24.00;;;;;;;6.00;61.62;101016.45;108213;1255;70410;-63
2023/01/26 12:40:22;;;;;;;62.60;25.60;;;;;;;5.91;61.54;101013.15;108199;1256;73126;-66
2023/01/26 12:42:56;;;;;;;67.60;26.20;;;;;;;5.87;61.02;101012.14;108134;1256;62277;-62
2023/01/26 12:45:28;;;;;;;44.00;18.10;;;;;;;5.94;61.05;101004.10;108195;1254;60017;-65
2023/01/26 12:48:20;;;;;;;69.80;25.90;;;;;;;5.78;60.56;101003.27;108139;1254;71931;-64
2023/01/26 12:51:01;;;;;;;50.40;19.90;;;;;;;5.95;60.24;101002.86;108194;1252;70957;-64
2023/01/26 12:53:39;;;;;;;63.00;24.10;;;;;;;6.02;59.34;100995.00;108180;1256;73991;-63
2023/01/26 12:56:26;;;;;;;65.10;25.30;;;;;;;6.09;58.88;101001.60;108171;1256;62110;-64
2023/01/26 12:58:55;;;;;;;70.40;26.70;;;;;;;5.58;60.31;101005.41;108165;1255;61737;-64
2023/01/26 13:01:24;;;;;;;75.20;27.00;;;;;;;5.68;60.31;101005.56;108167;1253;73587;-64
2023/01/26 13:03:54;;;;;;;67.10;26.40;;;;;;;5.49;60.51;101004.23;108204;1254;71212;-63
2023/01/26 13:07:02;;;;;;;59.10;24.50;;;;;;;5.44;61.07;100996.22;108173;1254;72656;-64
2023/01/26 13:09:30;;;;;;;60.80;25.10;;;;;;;5.28;61.22;100991.89;108252;1254;62160;-64
2023/01/26 13:11:58;;;;;;;63.90;24.90;;;;;;;5.28;61.43;100992.92;108094;1253;61004;-64
2023/01/26 13:14:32;;;;;;;62.50;25.00;;;;;;;5.61;60.59;100996.69;108219;1257;74327;-62
2023/01/26 13:17:15;;;;;;;62.90;23.30;;;;;;;5.96;59.64;100994.67;108123;1254;69535;-65
2023/01/26 13:19:43;;;;;;;61.70;21.70;;;;;;;6.17;58.71;100986.23;108105;1257;73492;-63
2023/01/26 13:22:17;;;;;;;57.80;22.90;;;;;;;6.34;58.01;100983.33;108107;1257;60661;-65
2023/01/26 13:24:47;;;;;;;59.10;24.30;;;;;;;6.32;57.82;100983.52;108182;1254;60051;-62
2023/01/26 13:27:33;;;;;;;56.40;20.80;;;;;;;6.22;57.67;100982.51;108064;1254;73152;-62
2023/01/26 13:30:02;;;;;;;68.80;23.40;;;;;;;5.67;59.59;100987.10;108017;1254;71554;-65
2023/01/26 13:32:30;;;;;;;70.80;25.50;;;;;;;5.74;59.83;100985.16;108039;1254;73607;-63
2023/01/26 13:34:59;;;;;;;64.30;23.90;;;;;;;6.02;59.02;100979.16;108034;1257;62180;-64
2023/01/26 13:37:50;;;;;;;69.00;27.20;;;;;;;6.05;58.79;100977.56;108026;1254;61544;-65
2023/01/26 13:40:20;;;;;;;59.50;24.80;;;;;;;6.05;58.93;100977.55;108060;1254;74182;-63
2023/01/26 13:43:07;;;;;;;;;;;;;;;6.07;58.91;100978.42;108045;1254;71301;-64
2023/01/26 13:46:16;;;;;;;45.80;17.60;;;;;;;6.32;58.12;100977.06;108021;1254;73907;-65
2023/01/26 13:48:54;;;;;;;58.00;24.70;;;;;;;5.96;58.52;100974.81;108060;1253;61896;-63
2023/01/26 13:51:27;;;;;;;57.90;23.50;;;;;;;6.17;58.43;100975.95;108025;1254;60529;-62
2023/01/26 13:54:12;;;;;;;66.00;26.50;;;;;;;6.29;58.29;100982.14;108033;1254;73058;-65
2023/01/26 15:56:33;;;;;;;85.10;32.40;;;;;;;2.67;85.24;100953.13;105584;1282;613734;-63
2023/01/26 15:59:01;;;;;;;105.10;44.00;;;;;;;4.08;79.22;100948.16;107126;1266;116416;-63
2023/01/26 16:01:29;;;;;;;91.80;36.50;;;;;;;4.47;76.59;100949.10;107319;1266;61648;-64
2023/01/26 16:03:57;;;;;;;89.10;33.80;;;;;;;4.57;75.08;100947.72;107290;1266;73378;-63
2023/01/26 16:06:27;;;;;;;86.20;31.80;;;;;;;4.63;74.05;100943.38;107347;1267;71627;-63
2023/01/26 16:08:56;;;;;;;66.40;25.00;;;;;;;4.78;73.04;100942.51;107381;1266;73637;-66
2023/01/26 16:11:27;;;;;;;82.50;30.60;;;;;;;4.63;72.69;100942.68;107398;1265;60359;-64
2023/01/26 16:13:57;;;;;;;92.50;31.70;;;;;;;4.72;71.78;100940.08;107289;1266;59420;-64
2023/01/26 16:16:31;;;;;;;75.70;25.80;;;;;;;4.53;71.83;100935.55;107280;1269;71938;-65
2023/01/26 16:18:59;;;;;;;92.70;33.80;;;;;;;4.34;72.60;100938.31;107314;1266;69846;-65
2023/01/26 16:21:30;;;;;;;79.90;30.20;;;;;;;4.61;71.47;100938.51;107262;1269;72358;-64
2023/01/26 16:23:59;;;;;;;89.30;30.70;;;;;;;4.77;70.43;100935.89;107240;1266;61250;-65
2023/01/26 16:26:27;;;;;;;80.80;29.40;;;;;;;4.80;70.30;100939.20;107286;1266;61617;-64
2023/01/26 16:28:56;;;;;;;81.00;27.40;;;;;;;5.08;68.97;100936.57;107289;1269;73280;-65
2023/01/26 16:31:29;;;;;;;75.70;29.10;;;;;;;4.98;69.07;100937.96;107414;1266;71206;-64
2023/01/26 16:33:58;;;;;;;86.60;31.90;;;;;;;5.29;68.09;100934.77;107436;1263;71759;-64
2023/01/26 16:36:26;;;;;;;82.00;31.60;;;;;;;5.14;67.77;100940.91;107448;1263;62060;-64
2023/01/26 16:38:54;;;;;;;69.00;26.30;;;;;;;5.17;67.81;100936.90;107454;1262;59562;-64
2023/01/26 16:41:32;;;;;;;83.10;30.90;;;;;;;5.03;68.07;100937.63;107432;1263;72246;-64
2023/01/26 16:44:01;;;;;;;81.60;29.30;;;;;;;5.53;67.20;100935.23;107361;1263;71414;-65
2023/01/26 16:46:29;;;;;;;64.40;24.30;;;;;;;5.36;66.89;100938.23;107378;1263;73853;-64
2023/01/26 16:48:57;;;;;;;80.30;31.80;;;;;;;5.17;67.69;100942.81;107608;1260;62454;-64
2023/01/26 16:51:30;;;;;;;77.90;29.10;;;;;;;5.31;67.18;100943.30;107642;1260;60293;-64
2023/01/26 16:53:58;;;;;;;73.00;27.90;;;;;;;5.37;66.76;100944.70;107528;1260;73422;-64
2023/01/26 16:56:27;;;;;;;75.60;26.80;;;;;;;5.54;66.07;100941.84;107652;1260;71561;-64
2023/01/26 16:58:55;;;;;;;78.50;29.00;;;;;;;5.62;66.04;100948.61;107659;1259;73798;-64
2023/01/26 17:01:28;;;;;;;83.30;30.20;;;;;;;5.53;65.96;100947.95;107617;1259;60647;-65
2023/01/26 17:03:56;;;;;;;85.80;33.30;;;;;;;5.68;66.02;100949.80;107481;1260;59875;-64
2023/01/26 17:06:25;;;;;;;84.40;34.90;;;;;;;5.65;66.05;100948.42;107492;1259;73117;-63
2023/01/26 17:08:53;;;;;;;91.50;35.00;;;;;;;5.95;65.14;100944.65;107725;1259;71095;-63
2023/01/26 17:11:26;;;;;;;71.60;28.80;;;;;;;5.86;64.69;100940.85;107627;1259;72966;-64
2023/01/26 17:13:55;;;;;;;77.00;28.10;;;;;;;5.85;64.69;100944.00;107584;1259;61423;-65
2023/01/26 17:16:28;;;;;;;77.00;30.60;;;;;;;5.77;64.53;100941.24;107685;1259;61345;-63
2023/01/26 17:18:56;;;;;;;76.00;30.20;;;;;;;5.69;64.59;100944.23;107601;1259;74363;-64
2023/01/26 17:21:27;;;;;;;78.60;29.00;;;;;;;5.71;64.74;100941.61;107580;1259;71388;-63
2023/01/26 17:23:56;;;;;;;85.50;34.10;;;;;;;5.75;64.38;100936.02;107628;1260;73927;-64
2023/01/26 17:26:24;;;;;;;78.30;33.30;;;;;;;6.09;64.03;100935.02;107586;1259;60188;-64
2023/01/26 17:28:53;;;;;;;76.40;30.40;;;;;;;6.11;63.38;100938.84;107593;1260;60581;-64
2023/01/26 17:31:23;;;;;;;75.70;29.10;;;;;;;6.02;63.01;100938.35;107645;1259;73949;-66
2023/01/26 17:33:51;;;;;;;75.20;28.00;;;;;;;6.04;62.91;100941.48;107651;1259;68648;-64
2023/01/26 17:36:19;;;;;;;70.50;28.60;;;;;;;5.92;63.19;100940.66;107650;1259;72920;-64
2023/01/26 17:38:47;;;;;;;69.40;27.40;;;;;;;5.98;63.19;100935.40;107685;1264;62479;-65
2023/01/26 17:41:16;;;;;;;78.20;30.20;;;;;;;6.19;62.86;100937.56;107585;1259;61258;-65
2023/01/26 17:43:44;;;;;;;81.70;30.00;;;;;;;6.05;62.56;100939.91;107661;1261;74325;-63
2023/01/26 17:46:14;;;;;;;76.10;29.30;;;;;;;5.95;63.34;100940.83;107696;1259;71358;-63
2023/01/26 17:48:42;;;;;;;74.50;29.80;;;;;;;6.01;63.13;100938.52;107759;1260;72670;-64
2023/01/26 17:51:17;;;;;;;69.80;27.00;;;;;;;6.12;62.74;100938.65;107717;1259;61403;-66
2023/01/26 17:53:46;;;;;;;77.30;29.30;;;;;;;6.04;62.80;100938.52;107592;1260;60014;-64
2023/01/26 17:56:16;;;;;;;69.50;26.40;;;;;;;5.81;63.21;100938.95;107787;1259;72164;-64
2023/01/26 17:58:49;;;;;;;82.90;31.70;;;;;;;5.88;63.07;100940.84;107740;1259;70498;-64
2023/01/26 18:01:17;;;;;;;59.60;22.20;;;;;;;6.10;62.66;100937.10;107639;1259;73917;-65
2023/01/26 18:03:45;;;;;;;73.30;28.50;;;;;;;6.13;62.32;100934.63;107733;1259;62167;-64
2023/01/26 18:06:13;;;;;;;68.90;27.90;;;;;;;5.99;63.20;100937.31;107553;1260;61234;-65
2023/01/26 18:08:42;;;;;;;72.10;28.20;;;;;;;5.82;63.29;100938.77;107742;1259;73906;-64
2023/01/26 18:11:12;;;;;;;69.40;26.70;;;;;;;6.01;62.63;100937.66;107676;1259;71433;-64
2023/01/26 18:13:41;;;;;;;80.20;33.00;;;;;;;6.08;62.63;100939.02;107656;1259;74003;-64
2023/01/26 18:16:11;;;;;;;71.20;28.80;;;;;;;6.26;61.68;100939.44;107576;1260;62421;-65
2023/01/26 18:18:39;;;;;;;74.90;29.40;;;;;;;6.10;62.04;100934.30;107641;1259;61571;-65
2023/01/26 18:21:18;;;;;;;74.80;29.70;;;;;;;6.20;62.25;100933.89;107597;1259;74388;-65
2023/01/26 18:23:48;;;;;;;69.40;28.00;;;;;;;6.05;62.82;100930.84;107610;1260;71383;-65
2023/01/26 18:26:17;;;;;;;75.70;29.30;;;;;;;6.08;62.98;100924.20;107591;1259;71188;-65
2023/01/26 18:28:46;;;;;;;69.30;28.10;;;;;;;6.31;62.21;100924.23;107736;1260;62335;-63
2023/01/26 18:31:17;;;;;;;69.40;27.10;;;;;;;6.37;61.92;100923.31;107655;1260;60331;-65
2023/01/26 18:33:50;;;;;;;69.40;27.70;;;;;;;6.69;60.99;100924.99;107635;1260;73709;-64
2023/01/26 18:36:19;;;;;;;51.50;20.00;;;;;;;6.43;61.07;100928.67;107686;1259;71372;-64
2023/01/26 18:38:49;;;;;;;70.50;28.00;;;;;;;6.29;61.72;100935.58;107600;1259;73586;-64
2023/01/26 18:41:20;;;;;;;58.50;21.70;;;;;;;6.37;61.65;100929.95;107699;1259;60046;-64
2023/01/26 18:43:49;;;;;;;73.00;28.00;;;;;;;6.47;61.40;100925.16;107735;1260;60468;-65
2023/01/26 18:46:18;;;;;;;70.50;28.30;;;;;;;6.51;61.25;100926.35;107706;1259;72958;-65
2023/01/26 18:48:46;;;;;;;64.60;28.20;;;;;;;6.84;60.70;100924.34;107667;1260;71285;-64
2023/01/26 18:51:17;;;;;;;68.00;27.30;;;;;;;6.35;61.86;100923.15;107639;1259;74161;-65
2023/01/26 18:53:45;;;;;;;66.20;26.60;;;;;;;6.38;62.09;100920.01;107567;1260;61333;-66
2023/01/26 18:56:14;;;;;;;63.70;27.20;;;;;;;6.44;61.64;100924.67;107578;1260;59544;-65
2023/01/26 18:58:42;;;;;;;68.20;27.70;;;;;;;6.35;61.74;100921.41;107646;1264;74252;-65
2023/01/26 19:01:12;;;;;;;64.30;25.50;;;;;;;6.61;61.65;100921.74;107628;1260;71353;-64
2023/01/26 19:03:40;;;;;;;64.40;26.40;;;;;;;6.48;61.40;100926.39;107639;1260;72236;-64
2023/01/26 19:06:08;;;;;;;68.80;28.80;;;;;;;6.51;61.67;100925.48;107772;1260;59715;-65
2023/01/26 19:08:37;;;;;;;68.60;28.60;;;;;;;6.61;61.24;100920.52;107757;1260;59634;-64
2023/01/26 19:11:06;;;;;;;63.90;26.10;;;;;;;6.71;60.83;100918.36;107714;1259;74259;-65
2023/01/26 19:13:35;;;;;;;64.40;25.30;;;;;;;6.47;61.23;100918.89;107797;1259;70621;-65
2023/01/26 19:16:05;;;;;;;63.80;26.60;;;;;;;6.56;61.08;100913.92;107671;1260;72603;-65
2023/01/26 19:18:36;;;;;;;65.40;23.90;;;;;;;6.75;60.42;100915.17;107722;1260;61020;-65
2023/01/26 19:21:04;;;;;;;57.80;22.90;;;;;;;6.69;60.74;100912.95;107634;1259;61318;-65
2023/01/26 19:23:36;;;;;;;66.50;26.10;;;;;;;6.65;60.68;100915.08;107614;1260;73335;-65
2023/01/26 19:26:09;;;;;;;;;;;;;;;6.55;61.00;100912.91;107702;1259;70167;-65
2023/01/26 19:28:40;;;;;;;73.50;29.00;;;;;;;6.42;61.24;100912.98;107689;1264;72710;-65
2023/01/26 19:31:08;;;;;;;;;;;;;;;6.46;61.21;100918.37;107572;1259;61988;-64
2023/01/26 19:33:36;;;;;;;66.30;23.30;;;;;;;6.58;61.12;100916.54;107754;1260;59532;-64
2023/01/26 19:36:05;;;;;;;63.40;26.10;;;;;;;6.87;60.06;100917.86;107716;1259;73479;-65
2023/01/26 19:38:38;;;;;;;66.00;27.50;;;;;;;6.72;60.52;100923.05;107736;1260;70153;-65
2023/01/26 19:41:06;;;;;;;64.60;26.20;;;;;;;7.08;59.73;100921.15;107663;1260;72794;-65
2023/01/26 19:43:34;;;;;;;58.20;25.60;;;;;;;7.11;59.36;100921.46;107485;1259;60932;-65
2023/01/26 19:46:07;;;;;;;84.90;32.30;;;;;;;6.91;60.19;100920.44;107711;1260;59032;-65
2023/01/26 19:48:35;;;;;;;80.00;33.00;;;;;;;6.83;60.10;100924.00;107673;1259;73784;-61
2023/01/26 19:51:11;;;;;;;62.20;27.50;;;;;;;6.59;60.72;100923.16;107643;1264;71236;-63
2023/01/26 21:52:56;;;;;;;75.70;31.30;;;;;;;-0.70;100.00;100862.26;104821;1292;599946;-89
2023/01/26 21:55:23;;;;;;;74.80;28.70;;;;;;;1.69;100.00;100856.17;107417;1266;61033;-89
2023/01/26 22:00:36;;;;;;;68.30;27.40;;;;;;;2.93;100.00;100858.10;107649;1262;73202;-91
2023/01/26 22:03:02;;;;;;;68.00;27.60;;;;;;;3.32;100.00;100853.42;107712;1264;71025;-91
2023/01/26 22:05:29;;;;;;;66.00;27.70;;;;;;;3.36;99.24;100858.83;107728;1259;184813;-91
2023/01/26 22:07:57;;;;;;;69.80;27.70;;;;;;;3.54;97.26;100857.50;107941;1261;61964;-89
2023/01/26 22:10:28;;;;;;;65.00;25.80;;;;;;;4.12;93.77;100851.72;107879;1259;62192;-89
2023/01/26 22:12:55;;;;;;;67.30;27.60;;;;;;;4.26;92.53;100855.90;107832;1260;72640;-92
2023/01/26 22:15:23;;;;;;;64.60;25.70;;;;;;;4.51;90.69;100857.98;107948;1260;70275;-91
2023/01/26 22:17:56;;;;;;;65.60;24.10;;;;;;;4.40;90.10;100859.38;107890;1259;72563;-90
2023/01/26 22:20:23;;;;;;;66.60;25.30;;;;;;;4.52;89.14;100856.42;107836;1260;60132;-90
2023/01/26 22:22:50;;;;;;;53.30;24.10;;;;;;;4.84;83.60;100852.56;108045;1260;59949;-90
2023/01/26 22:25:19;;;;;;;57.00;24.90;;;;;;;4.98;76.18;100850.26;107996;1260;73468;-91
2023/01/26 22:27:46;;;;;;;54.30;22.70;;;;;;;5.25;75.27;100846.69;108481;1253;70300;-90
2023/01/26 22:30:14;;;;;;;58.30;26.30;;;;;;;5.51;74.36;100841.01;108487;1254;72909;-90
2023/01/26 22:32:41;;;;;;;57.70;24.70;;;;;;;5.42;73.80;100838.61;108490;1250;62381;-90
2023/01/26 22:35:08;;;;;;;52.20;23.40;;;;;;;5.46;73.17;100839.11;108619;1253;60182;-90
2023/01/26 22:37:38;;;;;;;64.40;27.60;;;;;;;5.60;72.70;100832.09;108739;1250;72070;-90
2023/01/26 22:40:06;;;;;;;73.50;33.30;;;;;;;5.45;71.56;100829.89;108690;1251;69933;-88
2023/01/26 22:42:33;;;;;;;62.70;29.00;;;;;;;5.52;70.04;100831.59;108420;1251;72742;-91
2023/01/26 22:45:01;;;;;;;50.30;23.10;;;;;;;5.53;69.82;100828.46;108667;1250;61192;-89
2023/01/26 22:47:30;;;;;;;59.30;25.90;;;;;;;5.66;69.30;100831.52;108584;1249;60639;-88
2023/01/26 22:49:57;;;;;;;64.10;27.30;;;;;;;5.49;69.77;100829.52;108589;1256;72947;-90
2023/01/26 22:52:23;;;;;;;62.70;26.70;;;;;;;5.43;69.78;100828.16;108634;1250;71779;-90
2023/01/26 22:54:50;;;;;;;54.60;24.50;;;;;;;5.52;69.47;100822.20;108643;1250;72678;-89
2023/01/26 22:57:19;;;;;;;61.50;27.10;;;;;;;5.62;69.14;100821.96;108570;1250;61229;-90
2023/01/26 22:59:48;;;;;;;66.90;27.00;;;;;;;5.66;68.79;100818.11;108558;1249;59300;-91
2023/01/26 23:02:14;;;;;;;56.30;24.40;;;;;;;5.73;68.02;100814.58;108652;1250;73614;-90
2023/01/26 23:04:43;;;;;;;70.20;27.70;;;;;;;5.76;67.38;100812.66;108676;1251;68671;-91
2023/01/26 23:07:09;;;;;;;60.10;27.60;;;;;;;6.12;65.30;100811.20;108608;1250;73473;-90
2023/01/26 23:09:38;;;;;;;54.30;23.60;;;;;;;6.09;64.85;100810.88;108651;1251;59322;-90
2023/01/26 23:12:05;;;;;;;70.20;26.50;;;;;;;5.98;65.84;100807.47;108591;1251;60384;-90
2023/01/26 23:14:37;;;;;;;68.70;28.00;;;;;;;6.12;65.23;100807.02;109011;1250;73096;-89
2023/01/26 23:17:07;;;;;;;56.90;23.90;;;;;;;6.23;65.73;100803.61;109358;1250;69355;-90
2023/01/26 23:19:49;;;;;;;65.40;27.60;;;;;;;6.26;65.41;100808.13;109622;1250;72630;-91
2023/01/26 23:22:19;;;;;;;65.20;25.90;;;;;;;6.16;65.07;100806.30;109291;1250;60694;-88
2023/01/26 23:27:42;;;;;;;64.10;27.00;;;;;;;5.86;64.25;100809.62;108645;1249;72298;-89
2023/01/26 23:30:09;;;;;;;80.20;30.30;;;;;;;6.14;63.34;100805.78;108678;1250;69886;-89
2023/01/26 23:32:37;;;;;;;63.40;25.70;;;;;;;6.13;63.32;100804.92;108656;1251;72819;-90
2023/01/26 23:35:04;;;;;;;70.70;30.20;;;;;;;6.18;63.24;100808.54;108622;1254;62403;-90
2023/01/26 23:37:31;;;;;;;80.50;30.40;;;;;;;6.11;63.22;100812.95;108572;1250;60349;-91
2023/01/26 23:39:59;;;;;;;81.30;30.20;;;;;;;6.38;62.81;100812.57;108568;1251;72944;-90
2023/01/26 23:42:26;;;;;;;93.60;37.40;;;;;;;6.60;62.25;100808.85;108681;1250;68464;-91
2023/01/26 23:44:53;;;;;;;77.30;32.20;;;;;;;6.76;61.78;100809.05;108564;1251;73917;-90
2023/01/26 23:47:20;;;;;;;91.50;32.80;;;;;;;6.90;61.40;100809.24;108501;1251;59877;-91
2023/01/26 23:49:46;;;;;;;81.20;33.20;;;;;;;6.69;61.76;100805.28;108572;1250;59936;-90
2023/01/26 23:52:13;;;;;;;102.70;37.40;;;;;;;6.63;62.09;100808.31;108638;1250;71546;-90
2023/01/26 23:54:40;;;;;;;105.00;37.10;;;;;;;6.67;61.75;100803.58;108531;1251;69555;-90
2023/01/26 23:57:07;;;;;;;99.40;40.60;;;;;;;6.73;61.70;100807.85;108625;1250;72396;-89
2023/01/26 23:59:36;;;;;;;99.30;38.40;;;;;;;6.81;61.73;100803.60;108584;1250;61158;-90
